createdAt,value
2022-08-26T00:00:27.728Z,11.88
2022-08-26T00:02:00.009Z,12.27
2022-08-26T00:03:32.032Z,10.51
2022-08-26T00:05:03.571Z,11.32
2022-08-26T00:06:35.059Z,11.59
2022-08-26T00:08:06.463Z,10.70
2022-08-26T00:09:40.402Z,10.40
2022-08-26T00:11:11.925Z,12.71
2022-08-26T00:12:43.557Z,11.04
2022-08-26T00:14:14.986Z,10.96
2022-08-26T00:15:46.501Z,10.66
2022-08-26T00:17:17.933Z,11.23
2022-08-26T00:18:49.440Z,10.62
2022-08-26T00:20:22.457Z,11.55
2022-08-26T00:21:54.290Z,11.52
2022-08-26T00:23:28.873Z,13.02
2022-08-26T00:25:00.511Z,11.19
2022-08-26T00:26:32.018Z,12.62
2022-08-26T00:28:03.498Z,14.96
2022-08-26T00:29:37.738Z,12.42
2022-08-26T00:31:14.361Z,12.34
2022-08-26T00:32:46.371Z,12.31
2022-08-26T00:34:19.449Z,11.16
2022-08-26T00:35:51.525Z,11.57
2022-08-26T00:37:23.215Z,13.47
2022-08-26T00:38:56.538Z,13.43
2022-08-26T00:40:28.140Z,11.91
2022-08-26T00:41:59.775Z,13.05
2022-08-26T00:43:31.209Z,11.05
2022-08-26T00:45:17.774Z,11.32
2022-08-26T00:46:49.489Z,11.01
2022-08-26T00:48:21.222Z,13.23
2022-08-26T00:49:52.687Z,11.95
2022-08-26T00:51:24.464Z,11.29
2022-08-26T00:53:01.582Z,9.44
2022-08-26T00:54:33.167Z,12.85
2022-08-26T00:56:04.822Z,12.23
2022-08-26T00:57:36.836Z,12.40
2022-08-26T00:59:08.221Z,13.42
2022-08-26T01:00:39.922Z,13.12
2022-08-26T01:02:20.745Z,15.03
2022-08-26T01:03:53.537Z,14.38
2022-08-26T01:05:26.910Z,14.42
2022-08-26T01:06:58.323Z,12.77
2022-08-26T01:08:29.899Z,12.36
2022-08-26T01:10:01.460Z,12.63
2022-08-26T01:11:32.890Z,12.34
2022-08-26T01:13:04.489Z,11.54
2022-08-26T01:14:36.755Z,12.18
2022-08-26T01:16:08.656Z,10.34
2022-08-26T01:17:40.195Z,12.19
2022-08-26T01:19:11.900Z,13.19
2022-08-26T01:20:44.431Z,12.88
2022-08-26T01:22:16.116Z,12.78
2022-08-26T01:23:47.769Z,12.68
2022-08-26T01:25:19.379Z,13.91
2022-08-26T01:26:50.901Z,13.49
2022-08-26T01:28:22.351Z,13.02
2022-08-26T01:29:53.955Z,12.72
2022-08-26T01:31:25.428Z,13.89
2022-08-26T01:32:57.081Z,13.29
2022-08-26T01:34:28.599Z,13.45
2022-08-26T01:36:00.035Z,12.27
2022-08-26T01:37:31.609Z,10.93
2022-08-26T01:39:03.089Z,10.73
2022-08-26T01:40:37.855Z,12.90
2022-08-26T01:42:10.421Z,12.40
2022-08-26T01:43:42.071Z,12.67
2022-08-26T01:45:13.611Z,10.42
2022-08-26T01:46:45.134Z,11.37
2022-08-26T01:48:17.682Z,11.68
2022-08-26T01:49:49.235Z,12.00
2022-08-26T01:51:22.372Z,10.88
2022-08-26T01:52:54.404Z,10.89
2022-08-26T01:54:26.601Z,10.45
2022-08-26T01:55:58.537Z,12.16
2022-08-26T01:57:30.008Z,11.48
2022-08-26T01:59:01.414Z,9.92
2022-08-26T02:00:33.159Z,10.62
2022-08-26T02:02:04.885Z,10.65
2022-08-26T02:03:36.468Z,12.00
2022-08-26T02:05:10.295Z,11.71
2022-08-26T02:06:41.738Z,9.94
2022-08-26T02:08:20.590Z,10.54
2022-08-26T02:09:56.453Z,12.44
2022-08-26T02:11:27.932Z,10.95
2022-08-26T02:12:59.896Z,12.95
2022-08-26T02:14:31.501Z,12.13
2022-08-26T02:16:03.080Z,11.15
2022-08-26T02:17:36.011Z,11.63
2022-08-26T02:19:10.106Z,12.34
2022-08-26T02:20:51.515Z,11.05
2022-08-26T02:22:24.493Z,11.00
2022-08-26T02:23:56.436Z,11.01
2022-08-26T02:25:27.827Z,11.50
2022-08-26T02:26:59.312Z,11.72
2022-08-26T02:28:30.870Z,10.81
2022-08-26T02:30:02.873Z,11.57
2022-08-26T02:31:34.626Z,13.79
2022-08-26T02:33:06.583Z,14.68
2022-08-26T02:34:39.540Z,13.59
2022-08-26T02:36:10.958Z,12.64
2022-08-26T02:37:44.855Z,12.79
2022-08-26T02:39:19.626Z,13.08
2022-08-26T02:40:53.962Z,14.60
2022-08-26T02:42:25.464Z,13.73
2022-08-26T02:43:57.279Z,14.68
2022-08-26T02:45:29.642Z,11.95
2022-08-26T02:47:01.509Z,13.88
2022-08-26T02:48:32.943Z,13.27
2022-08-26T02:50:09.439Z,13.91
2022-08-26T02:51:41.363Z,14.27
2022-08-26T02:53:14.550Z,12.64
2022-08-26T02:54:46.327Z,14.93
2022-08-26T02:56:21.348Z,14.06
2022-08-26T02:57:53.139Z,15.47
2022-08-26T02:59:25.078Z,13.97
2022-08-26T03:00:56.761Z,16.40
2022-08-26T03:02:33.377Z,14.33
2022-08-26T03:04:05.182Z,17.27
2022-08-26T03:05:37.104Z,16.33
2022-08-26T03:07:08.960Z,14.82
2022-08-26T03:08:40.391Z,14.57
2022-08-26T03:10:11.999Z,15.30
2022-08-26T03:11:43.575Z,15.87
2022-08-26T03:13:15.343Z,14.97
2022-08-26T03:14:46.838Z,16.82
2022-08-26T03:16:18.829Z,16.31
2022-08-26T03:17:51.011Z,16.12
2022-08-26T03:19:22.626Z,18.66
2022-08-26T03:20:54.111Z,18.64
2022-08-26T03:22:25.569Z,18.50
2022-08-26T03:23:58.924Z,19.43
2022-08-26T03:25:32.052Z,20.26
2022-08-26T03:27:05.799Z,20.97
2022-08-26T03:28:38.816Z,20.74
2022-08-26T03:30:11.714Z,21.28
2022-08-26T03:31:43.458Z,21.94
2022-08-26T03:33:14.920Z,24.27
2022-08-26T03:34:46.576Z,23.98
2022-08-26T03:36:18.370Z,22.76
2022-08-26T03:37:49.776Z,24.19
2022-08-26T03:39:21.376Z,27.91
2022-08-26T03:40:52.987Z,25.74
2022-08-26T03:42:24.410Z,28.17
2022-08-26T03:43:59.694Z,27.50
2022-08-26T03:45:33.000Z,28.40
2022-08-26T03:47:04.348Z,27.00
2022-08-26T03:48:37.425Z,28.50
2022-08-26T03:50:08.843Z,27.71
2022-08-26T03:51:41.191Z,28.74
2022-08-26T03:53:13.609Z,33.86
2022-08-26T03:54:45.116Z,32.74
2022-08-26T03:56:18.609Z,33.50
2022-08-26T03:57:50.067Z,34.57
2022-08-26T03:59:21.903Z,36.41
2022-08-26T04:00:55.613Z,38.46
2022-08-26T04:02:27.439Z,37.69
2022-08-26T04:04:00.392Z,37.47
2022-08-26T04:05:39.278Z,35.14
2022-08-26T04:07:16.548Z,36.59
2022-08-26T04:08:48.789Z,35.89
2022-08-26T04:10:20.307Z,36.40
2022-08-26T04:14:01.159Z,37.46
2022-08-26T04:15:33.335Z,36.42
2022-08-26T04:17:05.586Z,37.08
2022-08-26T04:18:37.387Z,38.65
2022-08-26T04:20:17.993Z,39.41
2022-08-26T04:21:49.565Z,38.11
2022-08-26T04:23:21.043Z,41.59
2022-08-26T04:24:52.498Z,41.81
2022-08-26T04:26:29.116Z,45.55
2022-08-26T04:28:00.550Z,44.94
2022-08-26T04:29:33.118Z,46.38
2022-08-26T04:31:06.087Z,44.18
2022-08-26T04:34:18.950Z,49.02
2022-08-26T04:38:03.109Z,53.44
2022-08-26T04:39:37.598Z,53.84
2022-08-26T04:41:14.905Z,50.02
2022-08-26T04:42:46.617Z,54.66
2022-08-26T04:44:19.602Z,53.42
2022-08-26T04:45:51.072Z,56.26
2022-08-26T04:47:23.226Z,53.62
2022-08-26T04:48:54.642Z,58.71
2022-08-26T04:50:26.671Z,59.11
2022-08-26T04:51:58.296Z,60.34
2022-08-26T04:53:29.786Z,59.55
2022-08-26T04:55:01.310Z,61.30
2022-08-26T04:56:32.892Z,63.05
2022-08-26T04:58:04.915Z,62.97
2022-08-26T04:59:39.320Z,64.94
2022-08-26T05:01:11.074Z,64.54
2022-08-26T05:02:42.455Z,66.55
2022-08-26T05:04:16.154Z,70.88
2022-08-26T05:05:47.889Z,71.53
2022-08-26T05:07:19.451Z,71.16
2022-08-26T05:08:51.113Z,73.16
2022-08-26T05:10:24.364Z,73.89
2022-08-26T05:11:55.724Z,80.05
2022-08-26T05:13:27.180Z,81.23
2022-08-26T05:14:58.612Z,80.75
2022-08-26T05:16:30.081Z,84.91
2022-08-26T05:18:01.450Z,89.27
2022-08-26T05:19:32.841Z,87.12
2022-08-26T05:21:04.340Z,84.92
2022-08-26T05:22:36.033Z,91.76
2022-08-26T05:24:07.427Z,97.87
2022-08-26T05:25:38.821Z,93.99
2022-08-26T05:27:11.877Z,93.32
2022-08-26T05:28:43.938Z,95.39
2022-08-26T05:30:15.405Z,92.49
2022-08-26T05:31:47.134Z,92.34
2022-08-26T05:33:19.091Z,91.58
2022-08-26T05:34:51.424Z,96.22
2022-08-26T05:36:29.751Z,95.18
2022-08-26T05:38:01.821Z,94.90
2022-08-26T05:39:33.361Z,98.40
2022-08-26T05:41:05.710Z,101.34
2022-08-26T05:42:37.169Z,100.81
2022-08-26T05:44:10.650Z,102.77
2022-08-26T05:45:46.244Z,104.06
2022-08-26T05:47:17.947Z,102.65
2022-08-26T05:48:51.018Z,101.79
2022-08-26T05:50:23.778Z,101.65
2022-08-26T05:52:17.956Z,105.56
2022-08-26T05:53:54.917Z,105.39
2022-08-26T05:56:13.949Z,105.29
2022-08-26T05:57:45.636Z,102.59
2022-08-26T05:59:16.986Z,107.68
2022-08-26T06:00:55.594Z,107.14
2022-08-26T06:02:27.003Z,105.40
2022-08-26T06:03:59.754Z,106.32
2022-08-26T06:05:37.836Z,104.09
2022-08-26T06:07:11.664Z,102.76
2022-08-26T06:08:44.874Z,101.67
2022-08-26T06:10:31.451Z,101.94
2022-08-26T06:12:03.730Z,101.95
2022-08-26T06:13:35.264Z,100.82
2022-08-26T06:15:06.787Z,97.91
2022-08-26T06:16:38.349Z,100.20
2022-08-26T06:18:09.995Z,96.86
2022-08-26T06:19:41.613Z,100.16
2022-08-26T06:21:13.624Z,96.09
2022-08-26T06:22:45.201Z,96.97
2022-08-26T06:24:16.648Z,96.50
2022-08-26T06:25:49.078Z,93.93
2022-08-26T06:27:20.761Z,95.80
2022-08-26T06:28:52.408Z,97.80
2022-08-26T06:30:25.215Z,96.10
2022-08-26T06:31:56.927Z,99.31
2022-08-26T06:33:28.533Z,103.71
2022-08-26T06:35:00.138Z,102.24
2022-08-26T06:36:32.912Z,102.71
2022-08-26T06:38:04.588Z,102.30
2022-08-26T06:39:35.970Z,103.90
2022-08-26T06:41:12.668Z,100.64
2022-08-26T06:42:46.184Z,99.64
2022-08-26T06:44:17.630Z,103.31
2022-08-26T06:45:50.199Z,103.08
2022-08-26T06:47:21.706Z,103.70
2022-08-26T06:48:53.909Z,100.23
2022-08-26T06:50:25.302Z,99.76
2022-08-26T06:51:57.028Z,100.46
2022-08-26T06:53:29.585Z,100.22
2022-08-26T06:55:05.962Z,102.98
2022-08-26T06:56:37.433Z,100.22
2022-08-26T06:58:08.907Z,94.88
2022-08-26T06:59:40.336Z,93.43
2022-08-26T07:01:12.178Z,91.54
2022-08-26T07:02:46.890Z,91.27
2022-08-26T07:04:20.263Z,93.02
2022-08-26T07:05:54.015Z,86.73
2022-08-26T07:07:27.035Z,86.02
2022-08-26T07:09:03.814Z,85.68
2022-08-26T07:10:36.178Z,83.19
2022-08-26T07:12:07.642Z,79.76
2022-08-26T07:13:39.278Z,79.57
2022-08-26T07:15:12.348Z,82.33
2022-08-26T07:16:43.745Z,80.17
2022-08-26T07:18:15.192Z,78.16
2022-08-26T07:19:46.647Z,78.54
2022-08-26T07:21:18.260Z,78.81
2022-08-26T07:22:50.257Z,77.20
2022-08-26T07:24:21.800Z,74.17
2022-08-26T07:25:53.643Z,73.12
2022-08-26T07:27:27.243Z,78.27
2022-08-26T07:29:04.817Z,77.24
2022-08-26T07:30:36.271Z,80.54
2022-08-26T07:32:13.178Z,80.46
2022-08-26T07:33:44.695Z,78.03
2022-08-26T07:35:16.207Z,78.00
2022-08-26T07:36:48.188Z,79.26
2022-08-26T07:38:25.950Z,82.64
2022-08-26T07:39:57.462Z,80.01
2022-08-26T07:41:34.469Z,81.71
2022-08-26T07:43:05.982Z,78.86
2022-08-26T07:44:37.423Z,79.42
2022-08-26T07:46:11.282Z,79.14
2022-08-26T07:47:46.213Z,80.44
2022-08-26T07:49:22.930Z,78.97
2022-08-26T07:50:54.360Z,79.78
2022-08-26T07:52:27.336Z,82.00
2022-08-26T07:53:58.990Z,80.01
2022-08-26T07:55:30.370Z,77.61
2022-08-26T07:57:09.472Z,77.37
2022-08-26T07:58:41.714Z,78.27
2022-08-26T08:00:14.111Z,75.99
2022-08-26T08:01:46.237Z,77.21
2022-08-26T08:03:17.826Z,75.15
2022-08-26T08:04:49.596Z,75.87
2022-08-26T08:06:27.281Z,73.88
2022-08-26T08:08:17.293Z,73.05
2022-08-26T08:09:58.896Z,71.07
2022-08-26T08:11:30.352Z,71.09
2022-08-26T08:13:01.854Z,72.35
2022-08-26T08:14:34.430Z,68.36
2022-08-26T08:16:05.929Z,72.06
2022-08-26T08:17:37.375Z,68.59
2022-08-26T08:19:08.767Z,69.53
2022-08-26T08:20:42.287Z,68.39
2022-08-26T08:22:18.032Z,67.59
2022-08-26T08:23:51.485Z,70.18
2022-08-26T08:25:22.967Z,69.87
2022-08-26T08:26:54.399Z,69.53
2022-08-26T08:28:27.665Z,67.38
2022-08-26T08:29:59.358Z,68.70
2022-08-26T08:31:56.997Z,69.06
2022-08-26T08:33:29.735Z,69.58
2022-08-26T08:35:01.455Z,67.56
2022-08-26T08:36:42.244Z,69.09
2022-08-26T08:38:14.619Z,70.36
2022-08-26T08:39:46.183Z,70.37
2022-08-26T08:41:31.079Z,70.42
2022-08-26T08:43:08.433Z,68.19
2022-08-26T08:44:40.026Z,69.98
2022-08-26T08:46:11.841Z,70.81
2022-08-26T08:47:43.356Z,73.39
2022-08-26T08:49:14.814Z,70.99
2022-08-26T08:50:46.270Z,74.52
2022-08-26T08:52:17.719Z,73.13
2022-08-26T08:53:54.810Z,75.28
2022-08-26T08:55:26.552Z,73.67
2022-08-26T08:56:58.024Z,72.34
2022-08-26T08:58:31.268Z,68.81
2022-08-26T09:00:07.678Z,67.73
2022-08-26T09:01:44.353Z,68.97
2022-08-26T09:03:15.864Z,71.86
2022-08-26T09:04:47.459Z,68.93
2022-08-26T09:06:19.855Z,66.05
2022-08-26T09:07:51.325Z,65.72
2022-08-26T09:09:23.042Z,63.05
2022-08-26T09:10:54.994Z,62.24
2022-08-26T09:12:29.383Z,63.57
2022-08-26T09:14:01.558Z,64.24
2022-08-26T09:15:33.182Z,62.44
2022-08-26T09:17:04.666Z,64.13
2022-08-26T09:18:36.623Z,64.37
2022-08-26T09:20:13.449Z,59.76
2022-08-26T09:21:45.104Z,61.49
2022-08-26T09:23:26.484Z,59.80
2022-08-26T09:25:02.900Z,60.49
2022-08-26T09:26:39.412Z,61.07
2022-08-26T09:28:11.115Z,65.77
2022-08-26T09:29:44.792Z,62.67
2022-08-26T09:31:21.274Z,64.49
2022-08-26T09:32:56.059Z,59.22
2022-08-26T09:34:33.140Z,59.68
2022-08-26T09:36:04.777Z,56.41
2022-08-26T09:37:36.437Z,52.48
2022-08-26T09:39:13.024Z,51.58
2022-08-26T09:40:49.529Z,48.74
2022-08-26T09:42:30.674Z,43.45
2022-08-26T09:44:02.106Z,44.79
2022-08-26T09:45:33.691Z,45.36
2022-08-26T09:47:10.987Z,46.14
2022-08-26T09:48:42.597Z,47.42
2022-08-26T09:50:14.110Z,50.89
2022-08-26T09:51:45.749Z,48.05
2022-08-26T09:53:28.654Z,55.91
2022-08-26T09:55:01.929Z,54.76
2022-08-26T09:56:44.988Z,54.80
2022-08-26T09:58:16.385Z,47.81
2022-08-26T09:59:48.019Z,50.24
2022-08-26T10:01:19.641Z,47.18
2022-08-26T10:02:53.639Z,48.56
2022-08-26T10:04:26.694Z,49.27
2022-08-26T10:05:58.502Z,45.42
2022-08-26T10:07:30.112Z,44.77
2022-08-26T10:09:08.359Z,46.67
2022-08-26T10:10:41.732Z,45.70
2022-08-26T10:12:16.698Z,42.74
2022-08-26T10:13:48.369Z,41.97
2022-08-26T10:15:39.571Z,46.41
2022-08-26T10:17:11.027Z,45.69
2022-08-26T10:18:42.476Z,46.50
2022-08-26T10:20:22.685Z,45.26
2022-08-26T10:21:55.642Z,44.92
2022-08-26T10:23:27.170Z,41.28
2022-08-26T10:24:58.713Z,42.95
2022-08-26T10:26:30.153Z,42.89
2022-08-26T10:28:01.797Z,42.49
2022-08-26T10:29:33.371Z,49.22
2022-08-26T10:31:05.685Z,51.82
2022-08-26T10:32:37.388Z,48.44
2022-08-26T10:34:14.094Z,48.90
2022-08-26T10:35:45.694Z,48.50
2022-08-26T10:37:17.222Z,48.86
2022-08-26T10:38:49.353Z,42.43
2022-08-26T10:40:21.320Z,38.15
2022-08-26T10:41:52.810Z,34.70
2022-08-26T10:43:25.666Z,32.66
2022-08-26T10:44:58.711Z,33.94
2022-08-26T10:46:35.478Z,29.49
2022-08-26T10:48:13.583Z,26.96
2022-08-26T10:49:45.138Z,30.24
2022-08-26T10:51:17.214Z,30.37
2022-08-26T10:52:49.272Z,27.66
2022-08-26T10:54:20.956Z,27.78
2022-08-26T10:55:52.527Z,27.81
2022-08-26T10:57:24.186Z,27.51
2022-08-26T10:58:55.706Z,26.11
2022-08-26T11:00:27.543Z,26.74
2022-08-26T11:01:59.222Z,25.31
2022-08-26T11:03:35.433Z,24.50
2022-08-26T11:05:07.082Z,25.60
2022-08-26T11:06:40.423Z,24.28
2022-08-26T11:08:13.453Z,24.96
2022-08-26T11:09:45.252Z,24.16
2022-08-26T11:11:17.115Z,23.39
2022-08-26T11:12:51.206Z,23.16
2022-08-26T11:14:28.740Z,25.28
2022-08-26T11:16:01.732Z,24.19
2022-08-26T11:17:33.359Z,24.96
2022-08-26T11:19:04.965Z,24.69
2022-08-26T11:20:36.555Z,25.53
2022-08-26T11:22:08.600Z,21.44
2022-08-26T11:23:41.691Z,21.15
2022-08-26T11:25:13.179Z,25.10
2022-08-26T11:26:55.549Z,23.42
2022-08-26T11:28:28.298Z,24.97
2022-08-26T11:30:00.571Z,22.42
2022-08-26T11:31:32.529Z,25.41
2022-08-26T11:33:04.250Z,23.81
2022-08-26T11:34:36.331Z,23.19
2022-08-26T11:36:12.133Z,21.56
2022-08-26T11:37:43.984Z,23.44
2022-08-26T11:39:15.612Z,19.89
2022-08-26T11:40:47.176Z,19.97
2022-08-26T11:42:20.265Z,20.58
2022-08-26T11:43:51.970Z,20.62
2022-08-26T11:45:23.779Z,20.16
2022-08-26T11:46:55.433Z,19.98
2022-08-26T11:48:26.982Z,24.31
2022-08-26T11:49:58.711Z,18.70
2022-08-26T11:51:30.342Z,19.53
2022-08-26T11:53:03.392Z,23.78
2022-08-26T11:54:35.657Z,20.71
2022-08-26T11:56:07.478Z,21.50
2022-08-26T11:57:39.061Z,22.31
2022-08-26T11:59:15.482Z,20.61
2022-08-26T12:00:47.244Z,23.17
2022-08-26T12:02:19.062Z,22.52
2022-08-26T12:03:50.726Z,26.90
2022-08-26T12:05:22.387Z,22.72
2022-08-26T12:06:55.679Z,21.31
2022-08-26T12:08:27.886Z,24.02
2022-08-26T12:10:00.518Z,24.55
2022-08-26T12:11:33.715Z,23.06
2022-08-26T12:13:05.494Z,25.28
2022-08-26T12:14:37.289Z,21.72
2022-08-26T12:16:11.456Z,23.23
2022-08-26T12:17:42.992Z,21.85
2022-08-26T12:19:14.739Z,21.05
2022-08-26T12:20:46.237Z,19.95
2022-08-26T12:22:17.955Z,20.64
2022-08-26T12:23:52.361Z,22.48
2022-08-26T12:25:23.830Z,22.42
2022-08-26T12:26:55.975Z,24.03
2022-08-26T12:28:28.616Z,22.75
2022-08-26T12:30:00.291Z,22.34
2022-08-26T12:31:33.223Z,22.92
2022-08-26T12:33:08.058Z,21.01
2022-08-26T12:34:54.350Z,20.15
2022-08-26T12:36:25.996Z,21.41
2022-08-26T12:37:57.748Z,23.80
2022-08-26T12:39:29.303Z,20.63
2022-08-26T12:41:05.973Z,21.67
2022-08-26T12:42:37.550Z,20.01
2022-08-26T12:44:09.142Z,20.39
2022-08-26T12:45:40.669Z,22.10
2022-08-26T12:47:12.372Z,19.35
2022-08-26T12:48:43.947Z,19.14
2022-08-26T12:50:15.863Z,20.82
2022-08-26T12:51:47.318Z,20.74
2022-08-26T12:53:18.995Z,21.94
2022-08-26T12:54:56.948Z,20.62
2022-08-26T12:56:28.704Z,19.36
2022-08-26T12:58:01.156Z,19.06
2022-08-26T12:59:32.651Z,21.82
2022-08-26T13:01:04.483Z,19.89
2022-08-26T13:02:36.143Z,20.97
2022-08-26T13:04:07.724Z,19.06
2022-08-26T13:05:39.346Z,21.52
2022-08-26T13:07:10.828Z,20.95
2022-08-26T13:08:42.748Z,17.38
2022-08-26T13:10:14.161Z,19.76
2022-08-26T13:11:45.641Z,17.59
2022-08-26T13:13:17.162Z,18.54
2022-08-26T13:14:48.674Z,18.07
2022-08-26T13:16:20.158Z,17.63
2022-08-26T13:17:51.733Z,18.09
2022-08-26T13:19:23.217Z,17.45
2022-08-26T13:20:54.686Z,18.07
2022-08-26T13:22:26.270Z,17.39
2022-08-26T13:23:58.400Z,17.77
2022-08-26T13:25:29.989Z,18.15
2022-08-26T13:27:01.487Z,17.48
2022-08-26T13:28:33.004Z,17.96
2022-08-26T13:30:04.694Z,17.22
2022-08-26T13:31:36.359Z,15.48
2022-08-26T13:33:09.246Z,15.33
2022-08-26T13:34:46.207Z,13.95
2022-08-26T13:36:21.113Z,16.40
2022-08-26T13:37:52.587Z,19.24
2022-08-26T13:39:29.112Z,17.22
2022-08-26T13:41:00.644Z,19.16
2022-08-26T13:42:32.108Z,17.64
2022-08-26T13:44:03.718Z,19.59
2022-08-26T13:45:36.323Z,17.37
2022-08-26T13:47:07.978Z,18.35
2022-08-26T13:48:39.706Z,16.35
2022-08-26T13:50:14.871Z,14.31
2022-08-26T13:51:46.371Z,15.96
2022-08-26T13:53:18.088Z,15.98
2022-08-26T13:54:49.577Z,16.58
2022-08-26T13:56:21.185Z,15.50
2022-08-26T13:57:52.805Z,16.52
2022-08-26T13:59:24.671Z,15.43
2022-08-26T14:00:56.461Z,14.68
2022-08-26T14:02:28.146Z,15.65
2022-08-26T14:03:59.921Z,14.04
2022-08-26T14:05:31.534Z,16.04
2022-08-26T14:07:03.049Z,17.38
2022-08-26T14:08:34.800Z,14.66
2022-08-26T14:10:07.494Z,18.79
2022-08-26T14:11:50.891Z,14.52
2022-08-26T14:13:26.106Z,14.70
2022-08-26T14:14:57.902Z,14.85
2022-08-26T14:16:29.553Z,18.32
2022-08-26T14:18:11.196Z,12.64
2022-08-26T14:19:43.097Z,15.91
2022-08-26T14:21:14.699Z,15.70
2022-08-26T14:23:03.550Z,11.01
2022-08-26T14:24:44.554Z,13.56
2022-08-26T14:26:28.799Z,12.27
2022-08-26T14:28:02.455Z,15.46
2022-08-26T14:29:38.958Z,13.74
2022-08-26T14:31:10.478Z,12.19
2022-08-26T14:32:42.189Z,11.53
2022-08-26T14:34:13.610Z,13.39
2022-08-26T14:35:47.940Z,14.93
2022-08-26T14:37:21.486Z,12.07
2022-08-26T14:38:53.132Z,11.68
2022-08-26T14:40:24.816Z,13.84
2022-08-26T14:41:56.303Z,11.54
2022-08-26T14:43:32.904Z,12.61
2022-08-26T14:45:04.547Z,12.34
2022-08-26T14:46:36.372Z,13.04
2022-08-26T14:48:08.507Z,12.08
2022-08-26T14:49:45.140Z,13.23
2022-08-26T14:51:17.929Z,12.93
2022-08-26T14:52:49.768Z,12.66
2022-08-26T14:54:26.330Z,13.16
2022-08-26T14:55:58.984Z,12.48
2022-08-26T14:57:30.928Z,12.82
2022-08-26T14:59:02.465Z,11.67
2022-08-26T15:00:33.994Z,15.68
2022-08-26T15:02:05.699Z,10.87
2022-08-26T15:03:37.457Z,13.21
2022-08-26T15:05:09.179Z,12.31
2022-08-26T15:06:42.323Z,12.46
2022-08-26T15:08:13.765Z,13.16
2022-08-26T15:09:50.673Z,10.83
2022-08-26T15:13:37.643Z,11.51
2022-08-26T15:15:09.229Z,12.50
2022-08-26T15:16:40.703Z,12.66
2022-08-26T15:18:12.582Z,14.92
2022-08-26T15:19:44.189Z,12.18
2022-08-26T15:21:16.238Z,10.25
2022-08-26T15:22:47.712Z,14.43
2022-08-26T15:24:19.239Z,9.60
2022-08-26T15:25:50.829Z,9.42
2022-08-26T15:27:22.333Z,11.93
2022-08-26T15:28:53.782Z,11.88
2022-08-26T15:30:25.404Z,10.78
2022-08-26T15:31:57.485Z,9.24
2022-08-26T15:33:29.156Z,8.76
2022-08-26T15:35:00.641Z,11.23
2022-08-26T15:36:32.154Z,10.25
2022-08-26T15:38:03.802Z,11.80
2022-08-26T15:39:35.294Z,10.50
2022-08-26T15:41:06.700Z,11.15
2022-08-26T15:42:38.182Z,10.33
2022-08-26T15:44:09.959Z,13.37
2022-08-26T15:45:41.418Z,13.03
2022-08-26T15:47:13.227Z,10.99
2022-08-26T15:48:44.672Z,11.09
2022-08-26T15:50:16.250Z,12.20
2022-08-26T15:51:47.988Z,11.12
2022-08-26T15:53:19.472Z,11.01
2022-08-26T15:54:51.099Z,12.44
2022-08-26T15:56:22.649Z,9.74
2022-08-26T15:57:54.252Z,9.66
2022-08-26T15:59:26.395Z,9.85
2022-08-26T16:00:57.881Z,14.19
2022-08-26T16:02:32.341Z,8.34
2022-08-26T16:04:04.078Z,12.23
2022-08-26T16:05:35.761Z,13.92
2022-08-26T16:07:12.305Z,9.38
2022-08-26T16:10:56.287Z,11.76
2022-08-26T16:12:27.770Z,11.86
2022-08-26T16:13:59.239Z,10.42
2022-08-26T16:15:30.688Z,10.41
2022-08-26T16:17:02.132Z,12.83
2022-08-26T16:18:33.650Z,10.50
2022-08-26T16:20:05.224Z,11.33
2022-08-26T16:21:36.689Z,11.25
2022-08-26T16:23:08.379Z,12.09
2022-08-26T16:24:40.064Z,11.49
2022-08-26T16:26:11.552Z,12.35
2022-08-26T16:27:43.369Z,13.86
2022-08-26T16:29:14.780Z,10.57
2022-08-26T16:30:46.451Z,9.92
2022-08-26T16:32:18.048Z,10.73
2022-08-26T16:33:49.559Z,10.19
2022-08-26T16:35:21.098Z,11.52
2022-08-26T16:36:52.516Z,10.63
2022-08-26T16:38:23.920Z,11.16
2022-08-26T16:39:55.473Z,12.61
2022-08-26T16:41:31.962Z,9.45
2022-08-26T16:43:03.369Z,13.26
2022-08-26T16:44:34.968Z,11.17
2022-08-26T16:46:06.626Z,12.09
2022-08-26T16:47:38.113Z,12.73
2022-08-26T16:49:09.564Z,11.21
2022-08-26T16:50:41.069Z,15.54
2022-08-26T16:52:17.490Z,11.59
2022-08-26T16:53:49.058Z,12.43
2022-08-26T16:55:20.833Z,13.28
2022-08-26T16:56:53.466Z,11.88
2022-08-26T16:58:25.867Z,11.48
2022-08-26T16:59:57.536Z,9.95
2022-08-26T17:01:29.140Z,12.43
2022-08-26T17:03:00.739Z,10.40
2022-08-26T17:04:32.271Z,10.54
2022-08-26T17:06:03.692Z,11.32
2022-08-26T17:07:35.183Z,11.82
2022-08-26T17:09:06.551Z,10.81
2022-08-26T17:10:37.996Z,12.14
2022-08-26T17:12:14.587Z,12.10
2022-08-26T17:13:46.049Z,9.67
2022-08-26T17:15:17.658Z,10.71
2022-08-26T17:16:49.235Z,9.52
2022-08-26T17:18:20.644Z,11.40
2022-08-26T17:19:52.220Z,13.11
2022-08-26T17:21:23.644Z,12.30
2022-08-26T17:22:55.165Z,10.35
2022-08-26T17:24:26.631Z,11.12
2022-08-26T17:25:58.145Z,13.12
2022-08-26T17:27:30.619Z,11.69
2022-08-26T17:29:02.096Z,15.85
2022-08-26T17:30:33.620Z,11.22
2022-08-26T17:32:05.482Z,11.30
2022-08-26T17:33:37.021Z,11.74
2022-08-26T17:35:10.047Z,10.73
2022-08-26T17:36:44.635Z,10.68
2022-08-26T17:38:16.226Z,9.78
2022-08-26T17:39:47.945Z,11.90
2022-08-26T17:41:19.755Z,13.11
2022-08-26T17:42:51.240Z,11.39
2022-08-26T17:44:22.757Z,11.00
2022-08-26T17:46:00.063Z,8.40
2022-08-26T17:47:38.988Z,10.95
2022-08-26T17:49:10.416Z,9.87
2022-08-26T17:50:41.986Z,10.88
2022-08-26T17:52:13.463Z,12.37
2022-08-26T17:53:44.984Z,11.36
2022-08-26T17:55:37.467Z,9.72
2022-08-26T17:57:24.240Z,9.28
2022-08-26T17:59:34.679Z,9.49
2022-08-26T18:01:06.478Z,8.48
2022-08-26T18:02:38.113Z,9.24
2022-08-26T18:04:09.612Z,10.30
2022-08-26T18:05:41.166Z,10.74
2022-08-26T18:07:12.731Z,12.95
2022-08-26T18:08:44.285Z,11.02
2022-08-26T18:10:21.479Z,10.54
2022-08-26T18:12:04.269Z,12.02
2022-08-26T18:13:35.761Z,11.63
2022-08-26T18:15:17.233Z,11.01
2022-08-26T18:16:49.653Z,8.87
2022-08-26T18:18:21.224Z,8.22
2022-08-26T18:19:52.726Z,9.09
2022-08-26T18:21:24.354Z,10.23
2022-08-26T18:22:55.845Z,9.88
2022-08-26T18:24:27.296Z,10.06
2022-08-26T18:28:11.259Z,9.18
2022-08-26T18:30:10.511Z,9.68
2022-08-26T18:32:03.912Z,9.59
2022-08-26T18:33:35.378Z,7.02
2022-08-26T18:35:06.762Z,7.84
2022-08-26T18:36:38.293Z,8.39
2022-08-26T18:38:11.240Z,7.99
2022-08-26T18:39:43.391Z,8.62
2022-08-26T18:41:32.185Z,8.62
2022-08-26T18:43:03.677Z,8.64
2022-08-26T18:44:35.349Z,8.13
2022-08-26T18:46:06.997Z,9.42
2022-08-26T18:47:38.511Z,9.33
2022-08-26T18:49:10.299Z,8.94
2022-08-26T18:50:45.813Z,6.84
2022-08-26T18:52:23.789Z,7.42
2022-08-26T18:54:05.759Z,6.92
2022-08-26T18:55:37.545Z,8.56
2022-08-26T18:57:09.073Z,9.09
2022-08-26T18:58:40.528Z,7.83
2022-08-26T19:00:12.204Z,8.52
2022-08-26T19:01:50.819Z,7.35
2022-08-26T19:03:22.655Z,7.81
2022-08-26T19:04:54.468Z,8.65
2022-08-26T19:06:26.220Z,9.10
2022-08-26T19:07:57.728Z,9.96
2022-08-26T19:09:34.389Z,8.49
2022-08-26T19:11:12.737Z,7.09
2022-08-26T19:12:45.693Z,6.76
2022-08-26T19:14:23.298Z,7.99
2022-08-26T19:15:54.683Z,8.14
2022-08-26T19:17:26.178Z,8.48
2022-08-26T19:18:57.641Z,6.12
2022-08-26T19:20:29.056Z,7.35
2022-08-26T19:22:00.588Z,9.34
2022-08-26T19:23:32.646Z,6.81
2022-08-26T19:26:06.202Z,6.88
2022-08-26T19:27:37.704Z,7.78
2022-08-26T19:29:09.533Z,7.39
2022-08-26T19:30:41.099Z,4.81
2022-08-26T19:32:12.681Z,4.83
2022-08-26T19:33:44.149Z,7.69
2022-08-26T19:35:15.922Z,7.23
2022-08-26T19:36:47.455Z,5.78
2022-08-26T19:38:18.956Z,6.81
2022-08-26T19:39:50.496Z,6.80
2022-08-26T19:41:24.494Z,6.45
2022-08-26T19:42:58.545Z,6.17
2022-08-26T19:44:30.021Z,7.24
2022-08-26T19:46:01.674Z,6.58
2022-08-26T19:47:33.202Z,8.20
2022-08-26T19:49:04.635Z,9.46
2022-08-26T19:50:36.175Z,10.79
2022-08-26T19:52:07.664Z,6.81
2022-08-26T19:53:39.082Z,8.20
2022-08-26T19:55:13.022Z,5.82
2022-08-26T19:56:49.170Z,5.60
2022-08-26T19:58:26.293Z,6.31
2022-08-26T19:59:57.889Z,6.44
2022-08-26T20:01:29.522Z,6.37
2022-08-26T20:03:07.217Z,6.15
2022-08-26T20:04:42.345Z,8.44
2022-08-26T20:06:13.981Z,5.64
2022-08-26T20:07:45.402Z,6.76
2022-08-26T20:09:16.934Z,6.92
2022-08-26T20:10:48.594Z,5.81
2022-08-26T20:12:20.139Z,8.03
2022-08-26T20:13:51.675Z,6.53
2022-08-26T20:15:23.360Z,7.56